EGPM/SCS METAR and TAF weather

Enter ICAO airport designator
Station Type Date Time Source
EGPM METAR 2019/05/26 23:50 UTC NOAA

EGPM 262350Z AUTO 36010KT 9999 FEW024/// BKN045/// 06/04 Q1004


Station Type Date Time Source
EGPM Decoded METAR 2019/05/26 23:50 UTC NOAA

Scatsa / Shetland Island, United Kingdom (EGPM) 60-26N 001-18W
May 26, 2019 - 07:50 PM EDT / 2019.05.26 2350 UTC
Wind: from the N (360 degrees) at 12 MPH (10 KT):0
Visibility: greater than 7 mile(s):0
Sky conditions: mostly cloudy
Temperature: 42 F (6 C)
Dew Point: 39 F (4 C)
Relative Humidity: 86%
Pressure (altimeter): 29.65 in. Hg (1004 hPa)
ob: EGPM 262350Z AUTO 36010KT 9999 FEW024/// BKN045/// 06/04 Q1004
cycle: 0

Station Type Date Time Source
EGPM TAF 2013/04/29 03:39 UTC NOAA

TAF TAF EGPM 290337Z 2903/2915 22005KT 9999 SCT030 PROB30
TEMPO 2903/2906 7000 SHRAGS
BECMG 2906/2909 32015KT PROB40
TEMPO 2906/2915 6000 SHRA SHGS BKN012CB

Example: see airport list